Time;durP1;ratioP1;P1;durP2;ratioP2;P2;SDS_P1;SDS_P2;PMS_P1;PMS_P2;Temp;Humidity;BMP_temperature;BMP_pressure;BME280_temperature;BME280_humidity;BME280_pressure;Samples;Min_cycle;Max_cycle;Signal;HPM_P1;HPM_P2
2023/08/07 00:28:12;;;;;;;0.67;0.50;;;15.30;99.90;;;;;;4738462;29;20236;-83
2023/08/07 00:53:03;;;;;;;0.80;0.80;;;15.20;99.90;;;;;;4656589;30;20440;-84
2023/08/07 01:18:24;;;;;;;1.80;1.63;;;15.30;99.90;;;;;;4659502;29;20322;-82
2023/08/07 01:39:25;;;;;;;2.60;1.97;;;15.10;99.90;;;;;;4783752;29;20199;-86
2023/08/07 01:43:45;;;;;;;2.83;2.37;;;15.00;99.90;;;;;;4718189;29;20517;-85
2023/08/07 02:09:24;;;;;;;2.70;2.50;;;14.80;99.90;;;;;;4602553;30;20290;-85
2023/08/07 02:35:02;;;;;;;2.47;2.33;;;14.60;99.90;;;;;;4653617;30;20261;-83
2023/08/07 02:54:56;;;;;;;2.47;2.30;;;14.70;99.90;;;;;;4789470;29;20235;-85
2023/08/07 03:20:09;;;;;;;2.73;2.50;;;14.50;99.90;;;;;;4716228;29;20614;-88
2023/08/07 04:01:18;;;;;;;4.03;3.73;;;14.30;99.90;;;;;;4635281;30;20249;-83
2023/08/07 04:26:09;;;;;;;3.20;2.90;;;14.40;99.90;;;;;;4776241;29;20598;-83
2023/08/07 04:46:42;;;;;;;2.20;2.00;;;14.80;99.90;;;;;;4665651;30;20220;-86
2023/08/07 05:11:42;;;;;;;1.60;1.50;;;15.40;99.90;;;;;;4598681;30;20307;-84
2023/08/07 05:42:32;;;;;;;2.67;2.47;;;15.00;99.90;;;;;;4680553;30;20258;-85
2023/08/07 06:08:05;;;;;;;3.97;3.67;;;14.90;99.90;;;;;;4645677;30;20232;-84
2023/08/07 06:27:55;;;;;;;6.10;3.30;;;14.60;99.90;;;;;;4595182;30;20813;-83
2023/08/07 06:58:34;;;;;;;2.30;2.10;;;15.50;99.90;;;;;;4738099;29;20282;-84
2023/08/07 07:18:59;;;;;;;2.57;2.37;;;16.40;99.90;;;;;;4702434;29;20636;-84
2023/08/07 07:44:08;;;;;;;1.90;1.80;;;17.20;99.90;;;;;;4754553;29;21014;-83
2023/08/07 08:14:46;;;;;;;2.40;1.87;;;17.10;98.50;;;;;;4664330;30;20220;-85
2023/08/07 08:39:55;;;;;;;3.27;1.70;;;17.80;92.30;;;;;;4718795;29;20289;-84
2023/08/07 09:00:36;;;;;;;2.30;1.70;;;17.80;94.30;;;;;;4642532;30;20230;-82
2023/08/07 09:05:00;;;;;;;2.73;1.63;;;18.00;93.10;;;;;;4643173;30;20313;-85
2023/08/07 09:25:35;;;;;;;2.53;1.73;;;19.80;83.20;;;;;;4680756;30;20571;-86
2023/08/07 10:21:47;;;;;;;1.20;1.10;;;19.70;79.10;;;;;;4667067;29;20245;-86
2023/08/07 10:26:09;;;;;;;1.83;1.20;;;19.70;81.00;;;;;;4727090;29;20821;-84
2023/08/07 10:52:03;;;;;;;2.50;1.38;;;20.60;75.00;;;;;;4756971;29;20219;-85
2023/08/07 11:42:38;;;;;;;1.73;1.30;;;20.40;72.70;;;;;;4987079;28;20199;-85
2023/08/07 12:08:10;;;;;;;2.45;1.42;;;21.50;64.70;;;;;;4927813;28;20202;-85
2023/08/07 12:33:37;;;;;;;2.33;1.25;;;20.30;73.90;;;;;;4936834;28;20393;-82
2023/08/07 13:03:58;;;;;;;1.60;1.45;;;20.60;64.10;;;;;;4738366;29;20321;-83
2023/08/07 13:24:10;;;;;;;1.88;1.70;;;21.70;61.60;;;;;;4651969;30;20277;-85
2023/08/07 14:45:22;;;;;;;3.80;2.08;;;21.10;62.30;;;;;;4943850;28;20997;-85
2023/08/07 15:10:46;;;;;;;2.47;1.83;;;25.00;60.60;;;;;;4841654;29;20899;-84
2023/08/07 15:51:16;;;;;;;4.68;2.20;;;20.10;75.10;;;;;;4697571;30;20222;-87
2023/08/07 16:11:08;;;;;;;2.53;1.90;;;27.70;52.60;;;;;;4647903;29;20589;-86
2023/08/07 16:41:53;;;;;;;2.47;2.17;;;20.60;59.70;;;;;;4683652;30;20537;-84
2023/08/07 16:57:09;;;;;;;2.40;1.90;;;20.00;62.90;;;;;;5933139;23;20398;-83
2023/08/07 17:27:29;;;;;;;2.53;2.00;;;19.40;58.30;;;;;;4915333;28;20199;-86
2023/08/07 17:53:03;;;;;;;2.53;2.03;;;18.70;68.80;;;;;;4795402;29;20196;-86
2023/08/07 18:28:21;;;;;;;4.50;2.13;;;18.50;74.30;;;;;;4863517;29;20237;-84
2023/08/07 18:43:34;;;;;;;3.23;2.10;;;17.90;79.80;;;;;;5803939;23;20248;-83
2023/08/07 19:38:53;;;;;;;2.70;2.37;;;17.60;83.80;;;;;;4940349;23;20232;31
2023/08/07 20:04:33;;;;;;;3.47;2.40;;;17.20;86.50;;;;;;4759926;29;20212;-88
2023/08/07 20:35:11;;;;;;;3.40;2.27;;;16.50;90.70;;;;;;4685939;30;20500;-86
2023/08/07 21:00:28;;;;;;;2.83;2.37;;;16.40;91.90;;;;;;4625403;30;20237;-85
2023/08/07 21:36:01;;;;;;;4.67;2.70;;;16.40;93.60;;;;;;4702455;30;20372;-85
2023/08/07 22:06:15;;;;;;;3.30;2.60;;;16.30;96.50;;;;;;4653620;30;20194;-86
2023/08/07 22:57:14;;;;;;;2.73;2.43;;;16.00;99.90;;;;;;4843364;29;20214;-85
2023/08/07 23:32:38;;;;;;;3.77;3.27;;;15.70;99.90;;;;;;4792185;29;20287;-84
